Time;durP1;ratioP1;P1;durP2;ratioP2;P2;SDS_P1;SDS_P2;PMS_P1;PMS_P2;Temp;Humidity;BMP_temperature;BMP_pressure;BME280_temperature;BME280_humidity;BME280_pressure;Samples;Min_cycle;Max_cycle;Signal;HPM_P1;HPM_P2
2022/10/25 00:00:16;;;;;;;;;;;;;;;10.18;100.00;96693.31;5069416;28;20074;-78
2022/10/25 00:02:42;;;;;;;;;;;;;;;10.15;100.00;96699.78;5065049;28;20042;-78
2022/10/25 00:05:11;;;;;;;;;;;;;;;10.14;100.00;96697.38;5060331;28;19963;-78
2022/10/25 00:07:37;;;;;;;;;;;;;;;10.13;100.00;96701.81;5064371;28;19972;-78
2022/10/25 00:10:03;;;;;;;;;;;;;;;10.13;100.00;96701.00;5060246;28;20001;-78
2022/10/25 00:12:29;;;;;;;;;;;;;;;10.12;100.00;96697.59;5064000;28;19953;-78
2022/10/25 00:14:54;;;;;;;;;;;;;;;10.11;100.00;96695.97;5069592;28;20071;-78
2022/10/25 00:17:20;;;;;;;;;;;;;;;10.10;100.00;96690.94;5059613;28;20022;-78
2022/10/25 00:19:46;;;;;;;;;;;;;;;10.09;100.00;96692.75;5064080;28;19986;-78
2022/10/25 00:22:12;;;;;;;;;;;;;;;10.09;100.00;96694.56;5066047;28;20390;-78
2022/10/25 00:24:38;;;;;;;;;;;;;;;10.08;100.00;96704.25;5064746;28;19954;-79
2022/10/25 00:27:04;;;;;;;;;;;;;;;10.06;100.00;96697.63;5059309;28;19958;-78
2022/10/25 00:29:31;;;;;;;;;;;;;;;10.05;100.00;96699.44;5063630;28;19959;-78
2022/10/25 00:31:56;;;;;;;;;;;;;;;10.04;100.00;96699.66;5066358;28;20425;-78
2022/10/25 00:34:22;;;;;;;;;;;;;;;10.01;100.00;96690.38;5063190;28;19971;-78
2022/10/25 00:36:48;;;;;;;;;;;;;;;10.00;100.00;96691.41;5041246;28;19968;-78
2022/10/25 00:39:14;;;;;;;;;;;;;;;9.96;100.00;96683.13;5064249;28;20019;-78
2022/10/25 00:41:40;;;;;;;;;;;;;;;9.95;100.00;96680.72;5067395;28;19953;-77
2022/10/25 00:44:24;;;;;;;;;;;;;;;9.94;100.00;96685.16;5064377;28;19992;-78
2022/10/25 00:46:52;;;;;;;;;;;;;;;9.94;100.00;96679.13;5042505;28;19953;-78
2022/10/25 00:49:19;;;;;;;;;;;;;;;9.92;100.00;96673.28;5062002;28;19959;-78
2022/10/25 00:51:51;;;;;;;;;;;;;;;9.91;100.00;96675.09;5070765;28;19953;-78
2022/10/25 00:54:19;;;;;;;;;;;;;;;9.90;100.00;96677.94;5067651;28;20447;-77
2022/10/25 00:56:46;;;;;;;;;;;;;;;9.87;100.00;96688.81;5068210;28;19953;-77
2022/10/25 00:59:15;;;;;;;;;;;;;;;9.84;100.00;96679.56;5063366;28;19974;-78
2022/10/25 01:01:41;;;;;;;;;;;;;;;9.85;100.00;96683.78;5053215;28;19944;-78
2022/10/25 01:04:08;;;;;;;;;;;;;;;9.83;100.00;96693.69;5067863;28;20449;-78
2022/10/25 01:06:48;;;;;;;;;;;;;;;9.83;100.00;96700.72;5062474;28;19989;-78
2022/10/25 01:09:16;;;;;;;;;;;;;;;9.81;100.00;96689.66;5066531;28;19951;-77
2022/10/25 01:11:42;;;;;;;;;;;;;;;9.79;100.00;96684.63;5070243;28;19948;-78
2022/10/25 01:14:10;;;;;;;;;;;;;;;9.78;100.00;96693.47;5072381;28;19959;-78
2022/10/25 01:16:42;;;;;;;;;;;;;;;9.78;100.00;96688.22;5065298;28;20309;-78
2022/10/25 01:19:27;;;;;;;;;;;;;;;9.78;100.00;96690.06;5064504;28;19942;-78
2022/10/25 01:21:55;;;;;;;;;;;;;;;9.77;100.00;96678.00;5066541;28;19954;-78
2022/10/25 01:24:40;;;;;;;;;;;;;;;9.77;100.00;96678.00;5067509;28;19963;-78
2022/10/25 01:27:29;;;;;;;;;;;;;;;9.74;100.00;96680.00;5066834;28;19949;-78
2022/10/25 01:29:55;;;;;;;;;;;;;;;9.74;100.00;96679.19;5062133;28;19957;-78
2022/10/25 01:32:34;;;;;;;;;;;;;;;9.72;100.00;96676.78;5072046;28;20003;-77
2022/10/25 01:35:17;;;;;;;;;;;;;;;9.71;100.00;96683.03;5070808;28;19976;-77
2022/10/25 01:37:52;;;;;;;;;;;;;;;9.70;100.00;96683.22;5055734;28;20400;-77
2022/10/25 01:40:24;;;;;;;;;;;;;;;9.68;100.00;96685.25;5064519;28;19954;-77
2022/10/25 01:42:53;;;;;;;;;;;;;;;9.67;100.00;96681.03;5064336;28;19954;-77
2022/10/25 01:45:25;;;;;;;;;;;;;;;9.66;100.00;96700.34;5066768;28;19958;-77
2022/10/25 01:47:54;;;;;;;;;;;;;;;9.62;100.00;96681.66;5065795;28;19957;-78
2022/10/25 01:50:23;;;;;;;;;;;;;;;9.59;100.00;96689.09;5050574;28;20041;-77
2022/10/25 01:52:49;;;;;;;;;;;;;;;9.56;100.00;96674.63;5071639;28;19949;-77
2022/10/25 01:55:15;;;;;;;;;;;;;;;9.54;100.00;96685.28;5070283;28;20048;-77
2022/10/25 01:58:00;;;;;;;;;;;;;;;9.52;100.00;96692.53;5064367;28;19955;-77
2022/10/25 02:00:29;;;;;;;;;;;;;;;9.50;100.00;96697.19;5061585;28;19945;-77
2022/10/25 02:02:58;;;;;;;;;;;;;;;9.49;100.00;96692.97;5069016;28;19949;-77
2022/10/25 02:05:24;;;;;;;;;;;;;;;9.49;100.00;96690.34;5064552;28;19951;-78
2022/10/25 02:08:05;;;;;;;;;;;;;;;9.47;100.00;96702.00;5066087;28;19995;-77
2022/10/25 02:10:45;;;;;;;;;;;;;;;9.44;100.00;96700.59;5060445;28;20516;-77
2022/10/25 02:13:19;;;;;;;;;;;;;;;9.42;100.00;96694.78;5064879;28;20340;-77
2022/10/25 02:16:15;;;;;;;;;;;;;;;9.42;100.00;96696.59;5066415;28;19950;-77
2022/10/25 02:18:43;;;;;;;;;;;;;;;9.40;100.00;96694.16;5030515;28;19977;-77
2022/10/25 02:21:09;;;;;;;;;;;;;;;9.39;100.00;96695.19;5063734;28;19951;-77
2022/10/25 02:23:36;;;;;;;;;;;;;;;9.38;100.00;96696.19;5068746;28;19952;-77
2022/10/25 02:26:04;;;;;;;;;;;;;;;9.37;100.00;96696.41;5071989;28;19965;-78
2022/10/25 02:28:31;;;;;;;;;;;;;;;9.35;100.00;96691.38;5057885;28;19961;-77
2022/10/25 02:30:58;;;;;;;;;;;;;;;9.30;100.00;96694.59;5065347;28;19951;-77
2022/10/25 02:33:24;;;;;;;;;;;;;;;9.30;100.00;96684.13;5061932;28;19972;-77
2022/10/25 02:36:09;;;;;;;;;;;;;;;9.29;100.00;96676.47;5066074;28;19960;-77
2022/10/25 02:38:35;;;;;;;;;;;;;;;9.27;100.00;96684.53;5063239;28;19955;-77
2022/10/25 02:41:02;;;;;;;;;;;;;;;9.25;100.00;96678.69;5058857;28;19961;-77
2022/10/25 02:46:50;;;;;;;;;;;;;;;9.22;100.00;96681.72;5046762;28;19942;-77
2022/10/25 02:49:16;;;;;;;;;;;;;;;9.19;100.00;96679.50;5065611;28;20414;-77
2022/10/25 02:51:42;;;;;;;;;;;;;;;9.18;100.00;96675.28;5061302;28;19947;-77
2022/10/25 02:54:08;;;;;;;;;;;;;;;9.18;100.00;96677.91;5065879;28;19968;-77
2022/10/25 02:56:33;;;;;;;;;;;;;;;9.18;100.00;96675.28;5068560;28;19948;-77
2022/10/25 02:58:59;;;;;;;;;;;;;;;9.18;100.00;96682.34;5066278;28;19984;-77
2022/10/25 03:01:25;;;;;;;;;;;;;;;9.14;100.00;96674.09;5069555;28;20027;-78
2022/10/25 03:03:51;;;;;;;;;;;;;;;9.12;100.00;96679.50;5069315;28;19950;-77
2022/10/25 03:06:17;;;;;;;;;;;;;;;9.08;100.00;96678.31;5065661;28;19975;-77
2022/10/25 03:08:43;;;;;;;;;;;;;;;9.08;100.00;96688.78;5065973;28;19963;-77
2022/10/25 03:11:10;;;;;;;;;;;;;;;9.06;100.00;96684.75;5065255;28;19962;-77
2022/10/25 03:13:36;;;;;;;;;;;;;;;9.07;100.00;96688.97;5059964;28;19964;-78
2022/10/25 03:16:02;;;;;;;;;;;;;;;9.07;100.00;96683.72;5065074;28;19949;-77
2022/10/25 03:18:28;;;;;;;;;;;;;;;9.06;100.00;96674.28;5069691;28;20436;-77
2022/10/25 03:21:01;;;;;;;;;;;;;;;9.04;100.00;96684.94;5047124;28;19986;-77
2022/10/25 03:23:27;;;;;;;;;;;;;;;9.01;100.00;96684.53;5065092;28;20324;-77
2022/10/25 03:25:54;;;;;;;;;;;;;;;8.98;100.00;96693.59;5062928;28;19955;-77
2022/10/25 03:28:20;;;;;;;;;;;;;;;8.97;100.00;96693.81;5063543;28;19984;-77
2022/10/25 03:30:46;;;;;;;;;;;;;;;8.94;100.00;96693.22;5070415;28;20372;-78
2022/10/25 03:33:12;;;;;;;;;;;;;;;8.94;100.00;96700.22;5065649;28;20314;-77
2022/10/25 03:35:38;;;;;;;;;;;;;;;8.92;100.00;96700.47;5070143;28;19975;-77
2022/10/25 03:38:04;;;;;;;;;;;;;;;8.91;100.00;96700.66;5066120;28;19961;-79
2022/10/25 03:40:30;;;;;;;;;;;;;;;8.91;100.00;96698.03;5063636;28;19982;-77
2022/10/25 03:42:56;;;;;;;;;;;;;;;8.87;100.00;96697.63;5062458;28;19961;-77
2022/10/25 03:45:22;;;;;;;;;;;;;;;8.86;100.00;96700.44;5066877;28;20382;-77
2022/10/25 03:47:48;;;;;;;;;;;;;;;8.86;100.00;96697.81;5065535;28;20364;-77
2022/10/25 03:50:13;;;;;;;;;;;;;;;8.85;100.00;96697.03;5058838;28;20347;-78
2022/10/25 03:52:40;;;;;;;;;;;;;;;8.84;100.00;96700.66;5068357;28;19958;-77
2022/10/25 03:55:06;;;;;;;;;;;;;;;8.83;100.00;96699.03;5065285;28;20330;-77
2022/10/25 03:57:32;;;;;;;;;;;;;;;8.86;100.00;96708.28;5063169;28;20318;-77
2022/10/25 03:59:58;;;;;;;;;;;;;;;8.86;100.00;96710.88;5057143;28;19958;-77
2022/10/25 04:02:24;;;;;;;;;;;;;;;8.88;100.00;96708.88;5062830;28;20353;-77
2022/10/25 04:04:50;;;;;;;;;;;;;;;8.88;100.00;96707.09;5065832;28;19964;-77
2022/10/25 04:07:16;;;;;;;;;;;;;;;8.89;100.00;96705.28;5068874;28;20069;-77
2022/10/25 04:09:42;;;;;;;;;;;;;;;8.89;100.00;96710.50;5064004;28;19953;-77
2022/10/25 04:12:08;;;;;;;;;;;;;;;8.90;100.00;96709.50;5063513;28;20015;-77
2022/10/25 04:14:34;;;;;;;;;;;;;;;8.90;100.00;96719.94;5060763;28;20012;-77
2022/10/25 04:17:00;;;;;;;;;;;;;;;8.88;100.00;96714.94;5046472;28;19960;-77
2022/10/25 04:19:26;;;;;;;;;;;;;;;8.88;100.00;96704.47;5066041;28;19951;-77
2022/10/25 04:21:52;;;;;;;;;;;;;;;8.85;100.00;96704.88;5064714;28;20056;-77
2022/10/25 04:24:18;;;;;;;;;;;;;;;8.86;100.00;96705.66;5061981;28;19952;-77
2022/10/25 04:26:44;;;;;;;;;;;;;;;8.86;100.00;96710.88;5062151;28;19953;-77
2022/10/25 04:29:10;;;;;;;;;;;;;;;8.86;100.00;96716.13;5059485;28;19967;-77
2022/10/25 04:31:36;;;;;;;;;;;;;;;8.87;100.00;96717.75;5069308;28;19958;-77
2022/10/25 04:34:02;;;;;;;;;;;;;;;8.87;100.00;96715.13;5060701;28;19965;-79
2022/10/25 04:36:28;;;;;;;;;;;;;;;8.86;100.00;96708.28;5059952;28;19976;-78
2022/10/25 04:38:54;;;;;;;;;;;;;;;8.85;100.00;96709.31;5061511;28;19965;-77
2022/10/25 04:41:20;;;;;;;;;;;;;;;8.85;100.00;96706.69;5069326;28;19961;-77
2022/10/25 04:43:47;;;;;;;;;;;;;;;8.82;100.00;96707.88;5064509;28;19954;-77
2022/10/25 04:46:13;;;;;;;;;;;;;;;8.83;100.00;96708.69;5058773;28;19957;-77
2022/10/25 04:48:40;;;;;;;;;;;;;;;8.80;100.00;96703.84;5064379;28;19953;-78
2022/10/25 04:51:07;;;;;;;;;;;;;;;8.79;100.00;96699.63;5066965;28;19947;-76
2022/10/25 04:53:33;;;;;;;;;;;;;;;8.77;100.00;96699.03;5062463;28;19951;-77
2022/10/25 04:55:59;;;;;;;;;;;;;;;8.76;100.00;96703.47;5062547;28;20314;-77
2022/10/25 04:58:26;;;;;;;;;;;;;;;8.76;100.00;96703.47;5062823;28;19955;-77
2022/10/25 05:00:53;;;;;;;;;;;;;;;8.76;100.00;96721.75;5073119;28;19951;-77
2022/10/25 05:03:19;;;;;;;;;;;;;;;8.73;100.00;96714.31;5060199;28;20330;-77
2022/10/25 05:05:45;;;;;;;;;;;;;;;8.71;100.00;96717.13;5060571;28;19974;-77
2022/10/25 05:08:11;;;;;;;;;;;;;;;8.69;100.00;96721.75;5063989;28;19958;-77
2022/10/25 05:10:37;;;;;;;;;;;;;;;8.63;100.00;96719.94;5062675;28;19955;-77
2022/10/25 05:13:03;;;;;;;;;;;;;;;8.54;100.00;96724.53;5067121;28;19994;-77
2022/10/25 05:15:29;;;;;;;;;;;;;;;8.50;100.00;96723.34;5061438;28;20019;-77
2022/10/25 05:17:58;;;;;;;;;;;;;;;8.47;100.00;96721.09;5062349;28;19995;-77
2022/10/25 05:20:24;;;;;;;;;;;;;;;8.46;100.00;96727.34;5061106;28;19951;-77
2022/10/25 05:22:50;;;;;;;;;;;;;;;8.45;100.00;96722.31;5062946;28;20318;-77
2022/10/25 05:25:16;;;;;;;;;;;;;;;8.44;100.00;96724.13;5066414;28;19958;-77
2022/10/25 05:27:42;;;;;;;;;;;;;;;8.42;100.00;96728.72;5060293;28;20294;-77
2022/10/25 05:30:08;;;;;;;;;;;;;;;8.39;100.00;96731.69;5062794;28;19957;-77
2022/10/25 05:32:34;;;;;;;;;;;;;;;8.36;100.00;96733.88;5062325;28;19955;-77
2022/10/25 05:35:00;;;;;;;;;;;;;;;8.32;100.00;96743.94;5067314;28;19971;-78
2022/10/25 05:37:26;;;;;;;;;;;;;;;8.29;100.00;96737.31;5060780;28;20046;-77
2022/10/25 05:39:52;;;;;;;;;;;;;;;8.29;100.00;96749.56;5065488;28;19959;-77
2022/10/25 05:42:18;;;;;;;;;;;;;;;8.29;100.00;96744.31;5060212;28;20469;-78
2022/10/25 05:44:43;;;;;;;;;;;;;;;8.31;100.00;96743.13;5070062;28;20329;-77
2022/10/25 05:47:10;;;;;;;;;;;;;;;8.34;100.00;96740.13;5065602;28;20022;-77
2022/10/25 05:49:39;;;;;;;;;;;;;;;8.36;100.00;96739.94;5070072;28;19959;-77
2022/10/25 05:52:05;;;;;;;;;;;;;;;8.37;100.00;96738.13;5068922;28;19958;-78
2022/10/25 05:54:31;;;;;;;;;;;;;;;8.38;100.00;96742.34;5062496;28;20417;-77
2022/10/25 05:56:57;;;;;;;;;;;;;;;8.40;100.00;96746.38;5061081;28;19963;-78
2022/10/25 05:59:23;;;;;;;;;;;;;;;8.41;100.00;96744.59;5066962;28;19954;-77
2022/10/25 06:01:48;;;;;;;;;;;;;;;8.39;100.00;96746.56;5070459;28;20008;-77
2022/10/25 06:04:15;;;;;;;;;;;;;;;8.32;100.00;96742.13;5061287;28;19987;-77
2022/10/25 06:06:42;;;;;;;;;;;;;;;8.32;100.00;96741.34;5067643;28;19986;-77
2022/10/25 06:09:09;;;;;;;;;;;;;;;8.35;100.00;96748.78;5065661;28;19961;-77
2022/10/25 06:11:35;;;;;;;;;;;;;;;8.39;100.00;96747.38;5048232;28;20334;-77
2022/10/25 06:14:01;;;;;;;;;;;;;;;8.44;100.00;96750.25;5049847;28;19994;-77
2022/10/25 06:16:27;;;;;;;;;;;;;;;8.46;100.00;96743.03;5064578;28;19963;-77
2022/10/25 06:18:53;;;;;;;;;;;;;;;8.48;100.00;96748.03;5064729;28;20349;-77
2022/10/25 06:21:20;;;;;;;;;;;;;;;8.49;100.00;96745.22;5071642;28;19955;-77
2022/10/25 06:23:46;;;;;;;;;;;;;;;8.50;100.00;96746.84;5065631;28;19961;-77
2022/10/25 06:26:14;;;;;;;;;;;;;;;8.51;100.00;96755.50;5059187;28;19978;-77
2022/10/25 06:28:40;;;;;;;;;;;;;;;8.52;100.00;96760.53;5068173;28;20438;-77
2022/10/25 06:31:13;;;;;;;;;;;;;;;8.57;100.00;96757.31;5070586;28;19950;-77
2022/10/25 06:33:39;;;;;;;;;;;;;;;8.65;100.00;96769.38;5064820;28;20311;-77
2022/10/25 06:36:06;;;;;;;;;;;;;;;8.72;100.00;96771.03;5060368;28;19972;-78
2022/10/25 06:38:32;;;;;;;;;;;;;;;8.82;100.00;96768.03;5070240;28;19955;-77
2022/10/25 06:41:02;;;;;;;;;;;;;;;8.94;100.00;96776.91;5070077;28;19974;-77
2022/10/25 06:43:28;;;;;;;;;;;;;;;9.06;100.00;96771.88;5066278;28;19961;-77
2022/10/25 06:45:54;;;;;;;;;;;;;;;9.23;100.00;96777.53;5060189;28;19951;-77
2022/10/25 06:48:20;;;;;;;;;;;;;;;9.47;100.00;96775.31;5070755;28;19953;-77
2022/10/25 06:50:46;;;;;;;;;;;;;;;9.74;100.00;96773.47;5063476;28;19951;-77
2022/10/25 06:53:13;;;;;;;;;;;;;;;10.00;100.00;96769.19;5062565;28;19976;-77
2022/10/25 06:55:38;;;;;;;;;;;;;;;10.24;100.00;96765.88;5066347;28;20314;-77
2022/10/25 06:58:04;;;;;;;;;;;;;;;10.48;100.00;96772.28;5046463;28;19951;-77
2022/10/25 07:00:30;;;;;;;;;;;;;;;10.68;100.00;96784.47;5063869;28;20043;-78
2022/10/25 07:02:57;;;;;;;;;;;;;;;10.82;100.00;96780.78;5062095;28;19957;-77
2022/10/25 07:05:23;;;;;;;;;;;;;;;10.92;100.00;96781.13;5059386;28;19952;-79
2022/10/25 07:07:49;;;;;;;;;;;;;;;11.05;100.00;96782.84;5065946;28;19969;-78
2022/10/25 07:10:15;;;;;;;;;;;;;;;11.12;100.00;96794.09;5064472;28;19953;-77
2022/10/25 07:12:41;;;;;;;;;;;;;;;11.27;100.00;96785.91;5070261;28;20445;-77
2022/10/25 07:15:07;;;;;;;;;;;;;;;11.39;100.00;96786.03;5064607;28;20418;-77
2022/10/25 07:17:33;;;;;;;;;;;;;;;11.52;100.00;96791.16;5058881;28;19956;-77
2022/10/25 07:19:59;;;;;;;;;;;;;;;11.67;100.00;96797.91;5063945;28;20383;-78
2022/10/25 07:22:25;;;;;;;;;;;;;;;11.77;100.00;96793.78;5067028;28;19976;-77
2022/10/25 07:24:51;;;;;;;;;;;;;;;11.78;100.00;96787.50;5066901;28;19945;-77
2022/10/25 07:27:16;;;;;;;;;;;;;;;11.79;100.00;96799.63;5047866;28;20384;-80
2022/10/25 07:29:43;;;;;;;;;;;;;;;11.87;100.00;96805.63;5063589;28;19954;-79
2022/10/25 07:32:09;;;;;;;;;;;;;;;11.95;100.00;96813.28;5063588;28;19957;-78
2022/10/25 07:34:35;;;;;;;;;;;;;;;12.00;100.00;96804.72;5063267;28;19965;-78
2022/10/25 07:37:01;;;;;;;;;;;;;;;12.04;100.00;96808.53;5064086;28;19961;-77
2022/10/25 07:39:27;;;;;;;;;;;;;;;12.12;100.00;96808.25;5064456;28;20369;-80
2022/10/25 07:41:53;;;;;;;;;;;;;;;12.20;100.00;96802.69;5063128;28;19960;-77
2022/10/25 07:44:20;;;;;;;;;;;;;;;12.22;100.00;96813.81;5070583;28;20388;-77
2022/10/25 07:46:46;;;;;;;;;;;;;;;12.22;100.00;96807.72;5064825;28;20318;-77
2022/10/25 07:49:12;;;;;;;;;;;;;;;12.25;100.00;96826.50;5065821;28;20324;-78
2022/10/25 07:51:38;;;;;;;;;;;;;;;12.36;100.00;96819.69;5061963;28;20321;-78
2022/10/25 07:54:04;;;;;;;;;;;;;;;12.44;100.00;96827.31;5061963;28;20351;-78
2022/10/25 07:56:30;;;;;;;;;;;;;;;12.51;100.00;96814.06;5047726;28;19953;-77
2022/10/25 07:58:56;;;;;;;;;;;;;;;12.59;100.00;96819.03;5063157;28;20000;-77
2022/10/25 08:01:23;;;;;;;;;;;;;;;12.63;100.00;96800.97;5064026;28;19956;-77
2022/10/25 08:03:50;;;;;;;;;;;;;;;12.67;100.00;96802.16;5060975;28;19953;-78
2022/10/25 08:06:16;;;;;;;;;;;;;;;12.76;100.00;96809.50;5064779;28;19989;-77
2022/10/25 08:08:42;;;;;;;;;;;;;;;12.83;100.00;96805.97;5063515;28;19961;-78
2022/10/25 08:11:08;;;;;;;;;;;;;;;12.89;100.00;96811.16;5063951;28;19953;-77
2022/10/25 08:13:34;;;;;;;;;;;;;;;12.97;100.00;96810.03;5060666;28;19956;-77
2022/10/25 08:16:00;;;;;;;;;;;;;;;13.04;100.00;96816.03;5062381;28;19972;-77
2022/10/25 08:18:26;;;;;;;;;;;;;;;13.09;99.42;96797.72;5064500;28;20008;-77
2022/10/25 08:20:52;;;;;;;;;;;;;;;13.08;100.00;96796.13;5066068;28;19962;-78
2022/10/25 08:23:18;;;;;;;;;;;;;;;13.10;100.00;96806.41;5062409;28;20082;-78
2022/10/25 08:25:45;;;;;;;;;;;;;;;13.16;99.55;96787.88;5061570;28;20038;-77
2022/10/25 08:28:10;;;;;;;;;;;;;;;13.23;100.00;96797.50;5065154;28;20419;-77
2022/10/25 08:30:37;;;;;;;;;;;;;;;13.29;100.00;96797.47;5063553;28;19944;-77
2022/10/25 08:33:02;;;;;;;;;;;;;;;13.36;100.00;96795.50;5064395;28;19948;-77
2022/10/25 08:35:28;;;;;;;;;;;;;;;13.45;100.00;96789.91;5044880;28;20019;-77
2022/10/25 08:37:54;;;;;;;;;;;;;;;13.49;100.00;96797.13;5064837;28;20425;-77
2022/10/25 08:40:24;;;;;;;;;;;;;;;13.50;100.00;96795.28;5059388;28;20372;-77
2022/10/25 08:42:59;;;;;;;;;;;;;;;13.50;100.00;96801.38;5066420;28;19954;-77
2022/10/25 08:45:37;;;;;;;;;;;;;;;13.57;100.00;96801.28;5068928;28;19950;-77
2022/10/25 08:48:04;;;;;;;;;;;;;;;13.66;100.00;96799.09;5062260;28;19951;-77
2022/10/25 08:50:39;;;;;;;;;;;;;;;13.73;100.00;96797.97;5060561;28;19953;-77
2022/10/25 08:53:11;;;;;;;;;;;;;;;13.67;97.83;96783.06;5064395;28;19947;-77
2022/10/25 08:55:39;;;;;;;;;;;;;;;13.66;99.81;96797.25;5060866;28;19972;-77
2022/10/25 08:58:09;;;;;;;;;;;;;;;13.65;98.70;96793.03;5067150;28;19950;-77
2022/10/25 09:00:36;;;;;;;;;;;;;;;13.70;100.00;96802.88;5063568;28;20327;-77
2022/10/25 09:03:03;;;;;;;;;;;;;;;13.75;99.44;96803.81;5044158;28;19954;-76
2022/10/25 09:05:40;;;;;;;;;;;;;;;13.84;100.00;96808.72;5059428;28;19950;-77
2022/10/25 09:08:25;;;;;;;;;;;;;;;13.87;100.00;96809.06;5065291;28;19964;-76
2022/10/25 09:10:51;;;;;;;;;;;;;;;13.91;100.00;96807.59;5062076;28;20415;-74
2022/10/25 09:13:25;;;;;;;;;;;;;;;13.95;98.37;96802.66;5065180;28;20049;-77
2022/10/25 09:16:00;;;;;;;;;;;;;;;13.97;100.00;96819.84;5056280;28;20447;-76
2022/10/25 09:18:39;;;;;;;;;;;;;;;13.99;97.81;96806.44;5065226;28;19947;-76
2022/10/25 09:21:08;;;;;;;;;;;;;;;14.00;95.81;96802.75;5063406;28;19955;-76
2022/10/25 09:23:34;;;;;;;;;;;;;;;13.97;96.87;96801.38;5068749;28;19954;-76
2022/10/25 09:26:00;;;;;;;;;;;;;;;14.05;100.00;96821.34;5071126;28;20391;-76
2022/10/25 09:28:36;;;;;;;;;;;;;;;14.21;100.00;96827.72;5059763;28;19949;-76
2022/10/25 09:31:02;;;;;;;;;;;;;;;14.32;98.20;96811.09;5067626;28;20399;-77
2022/10/25 09:33:29;;;;;;;;;;;;;;;14.43;100.00;96825.31;5067178;28;19958;-77
2022/10/25 09:35:56;;;;;;;;;;;;;;;14.49;95.54;96791.88;5049015;28;19974;-76
2022/10/25 09:38:40;;;;;;;;;;;;;;;14.49;96.64;96805.91;5069748;28;19957;-77
2022/10/25 09:41:25;;;;;;;;;;;;;;;14.56;99.85;96811.88;5052544;28;20346;-76
2022/10/25 09:43:57;;;;;;;;;;;;;;;14.63;98.27;96810.94;5041507;28;20408;-76
2022/10/25 09:46:29;;;;;;;;;;;;;;;14.69;98.48;96821.34;5066066;28;19960;-76
2022/10/25 09:49:01;;;;;;;;;;;;;;;14.74;93.42;96795.06;5065095;28;19955;-76
2022/10/25 09:51:33;;;;;;;;;;;;;;;14.72;93.72;96785.75;5065774;28;19947;-76
2022/10/25 09:54:02;;;;;;;;;;;;;;;14.77;97.01;96805.13;5063697;28;19953;-77
2022/10/25 09:56:28;;;;;;;;;;;;;;;14.81;95.08;96797.56;5069213;28;20296;-74
2022/10/25 09:58:55;;;;;;;;;;;;;;;14.84;94.30;96791.00;5065668;28;19960;-76
2022/10/25 10:01:21;;;;;;;;;;;;;;;14.84;93.90;96797.06;5062793;28;19961;-77
2022/10/25 10:03:47;;;;;;;;;;;;;;;14.81;95.90;96811.56;5066013;28;19954;-74
2022/10/25 10:06:16;;;;;;;;;;;;;;;14.91;98.23;96820.69;5049437;28;19982;-76
2022/10/25 10:08:46;;;;;;;;;;;;;;;15.00;99.76;96817.44;5068111;28;19950;-76
2022/10/25 10:11:14;;;;;;;;;;;;;;;15.07;98.29;96806.72;5068105;28;19959;-77
2022/10/25 10:13:43;;;;;;;;;;;;;;;15.10;93.42;96792.25;5069632;28;19946;-74
2022/10/25 10:16:30;;;;;;;;;;;;;;;15.07;92.58;96792.72;5067896;28;19965;-76
2022/10/25 10:19:19;;;;;;;;;;;;;;;15.09;93.82;96788.81;5043915;28;19960;-76
2022/10/25 10:21:57;;;;;;;;;;;;;;;15.14;94.51;96794.19;5061153;28;19949;-74
2022/10/25 10:24:26;;;;;;;;;;;;;;;15.20;92.57;96776.56;5062399;28;19957;-74
2022/10/25 10:26:56;;;;;;;;;;;;;;;15.21;93.74;96786.91;5063320;28;20432;-76
2022/10/25 10:29:41;;;;;;;;;;;;;;;15.28;93.92;96783.31;5069015;28;19949;-73
2022/10/25 10:32:28;;;;;;;;;;;;;;;15.41;91.95;96775.06;5068906;28;19943;-76
2022/10/25 10:34:55;;;;;;;;;;;;;;;15.54;95.77;96790.63;5064829;28;19972;-75
2022/10/25 10:37:22;;;;;;;;;;;;;;;15.72;95.57;96786.13;5065395;28;20416;-73
2022/10/25 10:39:57;;;;;;;;;;;;;;;15.79;91.73;96755.84;5064198;28;19971;-74
2022/10/25 10:42:32;;;;;;;;;;;;;;;15.90;91.33;96753.34;5061116;28;19952;-76
2022/10/25 10:45:01;;;;;;;;;;;;;;;16.03;89.50;96737.09;5065817;28;19955;-73
2022/10/25 10:47:31;;;;;;;;;;;;;;;16.15;91.52;96751.03;5068705;28;19950;-73
2022/10/25 10:49:57;;;;;;;;;;;;;;;16.21;88.26;96734.16;5067074;28;19952;-73
2022/10/25 10:52:26;;;;;;;;;;;;;;;16.30;90.98;96752.25;5058469;28;19950;-75
2022/10/25 10:54:52;;;;;;;;;;;;;;;16.40;88.58;96741.78;5062680;28;19948;-75
2022/10/25 10:57:30;;;;;;;;;;;;;;;16.51;89.59;96740.06;5071474;28;19954;-75
2022/10/25 10:59:56;;;;;;;;;;;;;;;16.56;86.87;96721.56;5065951;28;20299;-75
2022/10/25 11:02:27;;;;;;;;;;;;;;;16.64;86.37;96727.22;5068976;28;19957;-75
2022/10/25 11:04:54;;;;;;;;;;;;;;;16.77;87.83;96726.00;5064404;28;19959;-75
2022/10/25 11:07:28;;;;;;;;;;;;;;;16.77;83.38;96694.22;5046703;28;19977;-76
2022/10/25 11:10:12;;;;;;;;;;;;;;;16.78;83.76;96703.78;5067296;28;19964;-76
2022/10/25 11:12:38;;;;;;;;;;;;;;;16.71;82.38;96700.53;5066715;28;19962;-75
2022/10/25 11:15:13;;;;;;;;;;;;;;;16.76;85.89;96723.63;5064769;28;19970;-77
2022/10/25 11:17:46;;;;;;;;;;;;;;;16.93;84.55;96716.41;5061904;28;19957;-75
2022/10/25 11:20:18;;;;;;;;;;;;;;;16.98;83.04;96694.44;5062075;28;19951;-75
2022/10/25 11:23:02;;;;;;;;;;;;;;;17.06;84.20;96723.13;5069769;28;20409;-75
2022/10/25 11:25:30;;;;;;;;;;;;;;;17.08;80.63;96694.53;5065818;28;19960;-75
2022/10/25 11:28:02;;;;;;;;;;;;;;;16.99;80.21;96701.34;5069861;28;19950;-75
2022/10/25 11:30:48;;;;;;;;;;;;;;;16.97;81.18;96706.91;5054082;28;19978;-75
2022/10/25 11:33:20;;;;;;;;;;;;;;;17.07;81.76;96714.13;5034095;28;19963;-75
2022/10/25 11:36:09;;;;;;;;;;;;;;;17.20;85.50;96734.13;5066351;28;19976;-75
2022/10/25 11:38:42;;;;;;;;;;;;;;;17.29;82.84;96716.69;5016984;28;19952;-75
2022/10/25 11:41:14;;;;;;;;;;;;;;;17.34;79.97;96698.16;5064144;28;19957;-76
2022/10/25 11:43:40;;;;;;;;;;;;;;;17.40;81.92;96705.09;5067168;28;19956;-75
2022/10/25 11:46:29;;;;;;;;;;;;;;;17.49;82.37;96712.56;5063819;28;19952;-75
2022/10/25 11:49:03;;;;;;;;;;;;;;;17.47;78.96;96680.22;5065070;28;19949;-75
2022/10/25 11:51:29;;;;;;;;;;;;;;;17.41;79.67;96693.44;5069134;28;19950;-75
2022/10/25 11:54:13;;;;;;;;;;;;;;;17.42;79.15;96694.25;5061979;28;19996;-75
2022/10/25 11:56:51;;;;;;;;;;;;;;;17.46;81.05;96705.94;5046840;28;20435;-75
2022/10/25 11:59:29;;;;;;;;;;;;;;;17.50;79.71;96690.31;5059796;28;19949;-75
2022/10/25 12:02:13;;;;;;;;;;;;;;;17.35;79.10;96686.50;5063789;28;19952;-75
2022/10/25 12:04:58;;;;;;;;;;;;;;;17.30;78.79;96675.06;5060913;28;19953;-75
2022/10/25 12:07:29;;;;;;;;;;;;;;;17.21;77.89;96661.50;5060579;28;19974;-75
2022/10/25 12:10:07;;;;;;;;;;;;;;;17.23;79.55;96688.53;5067367;28;19961;-75
2022/10/25 12:12:45;;;;;;;;;;;;;;;17.29;81.31;96692.03;5065986;28;19954;-74
2022/10/25 12:15:15;;;;;;;;;;;;;;;17.32;79.98;96680.91;5061337;28;20433;-75
2022/10/25 12:17:41;;;;;;;;;;;;;;;17.42;78.94;96681.78;5060092;28;19949;-75
2022/10/25 12:20:16;;;;;;;;;;;;;;;17.58;79.36;96682.69;5064824;28;19959;-74
2022/10/25 12:22:43;;;;;;;;;;;;;;;17.73;79.48;96670.56;5069013;28;19957;-72
2022/10/25 12:25:17;;;;;;;;;;;;;;;17.83;78.60;96665.34;5065134;28;19959;-74
2022/10/25 12:27:45;;;;;;;;;;;;;;;17.88;73.62;96628.19;5056662;28;19952;-75
2022/10/25 12:30:15;;;;;;;;;;;;;;;17.96;75.63;96643.63;5063732;28;19965;-74
2022/10/25 12:32:43;;;;;;;;;;;;;;;18.00;76.11;96649.22;5060502;28;19954;-75
2022/10/25 12:35:28;;;;;;;;;;;;;;;18.02;75.84;96642.59;5067445;28;19959;-75
2022/10/25 12:37:56;;;;;;;;;;;;;;;18.00;78.50;96665.94;5064211;28;19961;-74
2022/10/25 12:40:22;;;;;;;;;;;;;;;17.88;75.46;96644.13;5063618;28;19970;-75
2022/10/25 12:42:54;;;;;;;;;;;;;;;17.81;75.67;96646.19;5062998;28;19957;-75
2022/10/25 12:45:28;;;;;;;;;;;;;;;17.74;76.80;96650.91;5058742;28;20422;-75
2022/10/25 12:48:06;;;;;;;;;;;;;;;17.78;75.41;96644.03;5062942;28;20425;-74
2022/10/25 12:50:47;;;;;;;;;;;;;;;17.87;76.78;96652.34;5058453;28;19961;-75
2022/10/25 12:53:13;;;;;;;;;;;;;;;17.96;73.10;96621.59;5042701;28;20332;-74
2022/10/25 12:55:41;;;;;;;;;;;;;;;17.97;74.85;96631.94;5059938;28;19978;-74
2022/10/25 12:58:13;;;;;;;;;;;;;;;17.91;74.26;96621.56;5065117;28;19948;-75